Time;durP1;ratioP1;P1;durP2;ratioP2;P2;SDS_P1;SDS_P2;PMS_P1;PMS_P2;Temp;Humidity;BMP_temperature;BMP_pressure;BME280_temperature;BME280_humidity;BME280_pressure;Samples;Min_cycle;Max_cycle;Signal;HPM_P1;HPM_P2
2021/12/20 13:18:48;;;;;;;7.95;2.85;;;14.30;70.60;;;;;;2299357;62;30155;-76
2021/12/20 13:21:20;;;;;;;12.93;3.03;;;14.10;77.00;;;;;;2284015;62;30373;-76
2021/12/20 13:23:48;;;;;;;10.88;2.58;;;14.10;78.50;;;;;;2291239;62;30021;-76
2021/12/20 13:26:20;;;;;;;6.93;2.53;;;14.00;80.00;;;;;;2283604;62;30056;-76
2021/12/20 13:28:51;;;;;;;13.93;2.83;;;14.00;80.20;;;;;;2277634;62;30495;-76
2021/12/20 13:31:18;;;;;;;7.18;2.22;;;13.90;80.30;;;;;;2276958;62;30393;-76
2021/12/20 13:33:55;;;;;;;9.80;2.78;;;13.90;81.00;;;;;;2283252;62;30336;-76
2021/12/20 13:36:22;;;;;;;7.65;2.28;;;13.90;79.30;;;;;;2283494;62;30167;-76
2021/12/20 13:38:50;;;;;;;7.53;2.50;;;13.90;81.50;;;;;;2282879;62;30336;-76
2021/12/20 13:41:16;;;;;;;8.40;2.75;;;13.80;81.20;;;;;;2290962;62;30327;-76
2021/12/20 13:43:59;;;;;;;6.20;2.33;;;13.90;80.70;;;;;;2283659;62;30319;-76
2021/12/20 13:49:13;;;;;;;6.55;2.53;;;13.80;79.70;;;;;;2284014;62;30244;-76
2021/12/20 13:51:53;;;;;;;8.95;2.25;;;13.80;80.30;;;;;;2277483;62;30193;-76
2021/12/20 13:54:24;;;;;;;5.95;2.20;;;13.80;80.30;;;;;;2284058;62;30144;-76
2021/12/20 13:56:57;;;;;;;6.05;2.42;;;13.80;80.20;;;;;;2291127;62;31051;-76
2021/12/20 13:59:29;;;;;;;23.33;3.28;;;13.80;80.60;;;;;;2276689;62;30395;-77
2021/12/20 14:01:55;;;;;;;5.93;2.35;;;13.80;79.60;;;;;;2276949;62;29976;-77
2021/12/20 14:04:35;;;;;;;7.43;2.25;;;13.80;80.10;;;;;;2283655;62;30537;-76
2021/12/20 14:07:04;;;;;;;7.13;2.20;;;13.80;78.30;;;;;;2283874;62;31051;-77
2021/12/20 14:09:49;;;;;;;4.90;2.35;;;13.80;79.20;;;;;;2283695;62;30930;-77
2021/12/20 14:12:41;;;;;;;8.30;2.58;;;13.90;79.40;;;;;;2284897;62;31180;-76
2021/12/20 14:15:11;;;;;;;6.63;2.13;;;13.90;78.40;;;;;;2283459;62;30179;-77
2021/12/20 14:17:59;;;;;;;6.80;2.45;;;13.90;79.00;;;;;;2290951;62;30956;-77
2021/12/20 14:20:52;;;;;;;8.95;2.72;;;14.00;77.20;;;;;;2290798;62;30169;-76
2021/12/20 14:23:31;;;;;;;5.50;2.00;;;14.00;76.70;;;;;;2291042;62;30345;-77
2021/12/20 14:26:15;;;;;;;6.22;2.10;;;14.10;78.90;;;;;;2291003;62;30357;-78
2021/12/20 14:28:44;;;;;;;4.72;1.80;;;14.20;78.90;;;;;;2275369;62;32258;-79
2021/12/20 14:31:27;;;;;;;6.45;2.05;;;14.20;79.20;;;;;;2271151;62;30650;-79
2021/12/20 14:33:57;;;;;;;6.78;2.00;;;14.30;78.50;;;;;;2271661;62;30057;-78
2021/12/20 14:36:24;;;;;;;7.45;2.10;;;14.30;78.70;;;;;;2270937;62;30542;-79
2021/12/20 14:38:54;;;;;;;5.43;1.80;;;14.30;79.00;;;;;;2285410;62;30258;-78
2021/12/20 14:41:32;;;;;;;6.07;1.80;;;14.30;78.90;;;;;;2277671;62;30025;-78
2021/12/20 14:44:25;;;;;;;7.63;1.80;;;14.30;78.70;;;;;;2278495;62;30289;-78
2021/12/20 14:49:25;;;;;;;4.50;1.75;;;14.30;78.80;;;;;;2270865;62;32412;-81
2021/12/20 14:51:51;;;;;;;6.13;1.92;;;14.30;78.80;;;;;;2277931;62;30438;-81
2021/12/20 14:54:21;;;;;;;2.88;1.58;;;14.30;78.90;;;;;;2285099;62;30105;-82
2021/12/20 14:56:58;;;;;;;4.13;1.75;;;14.30;78.80;;;;;;2277533;62;30284;-81
2021/12/20 14:59:25;;;;;;;2.72;1.70;;;14.30;78.50;;;;;;2271302;62;30219;-81
2021/12/20 15:01:51;;;;;;;2.67;1.40;;;14.40;78.90;;;;;;2277794;62;30874;-81
2021/12/20 15:04:17;;;;;;;3.00;1.35;;;14.40;78.90;;;;;;2284938;62;30129;-81
2021/12/20 15:06:45;;;;;;;3.08;1.50;;;14.40;78.90;;;;;;2285037;62;30250;-81
2021/12/20 15:09:11;;;;;;;2.63;1.60;;;14.30;78.90;;;;;;2285063;62;31053;-80
2021/12/20 15:11:37;;;;;;;6.18;1.60;;;14.30;79.00;;;;;;2284891;62;30361;-82
2021/12/20 15:14:04;;;;;;;3.33;1.70;;;14.30;79.80;;;;;;2266064;62;30259;-82
2021/12/20 15:16:30;;;;;;;3.42;1.52;;;14.30;79.30;;;;;;2280510;62;29863;-82
2021/12/20 15:18:56;;;;;;;4.78;1.70;;;14.30;79.30;;;;;;2285827;62;30411;-82
2021/12/20 15:21:22;;;;;;;4.30;2.03;;;14.30;79.40;;;;;;2284699;62;30375;-81
2021/12/20 15:23:50;;;;;;;5.47;2.00;;;14.20;79.50;;;;;;2284527;62;30184;-83
2021/12/20 15:26:15;;;;;;;4.13;1.63;;;14.20;79.50;;;;;;2284884;62;30102;-83
2021/12/20 15:28:41;;;;;;;3.25;1.50;;;14.20;79.60;;;;;;2277409;62;31066;-84
2021/12/20 15:31:07;;;;;;;6.07;1.80;;;14.20;79.70;;;;;;2284604;62;30151;-85
2021/12/20 15:33:33;;;;;;;4.97;1.45;;;14.20;79.90;;;;;;2281183;62;30065;-78
2021/12/20 15:35:59;;;;;;;3.58;1.55;;;14.20;79.80;;;;;;2283499;62;30242;-77
2021/12/20 15:38:25;;;;;;;2.60;1.52;;;14.30;79.80;;;;;;2283715;62;30270;-77
2021/12/20 15:40:51;;;;;;;4.28;1.45;;;14.40;79.70;;;;;;2283349;62;31552;-82
2021/12/20 15:43:16;;;;;;;2.80;1.52;;;14.50;79.60;;;;;;2268362;62;30374;-82
2021/12/20 15:45:42;;;;;;;7.00;1.55;;;14.50;79.50;;;;;;2273760;62;30323;-80
2021/12/20 15:48:09;;;;;;;2.80;1.30;;;14.60;79.50;;;;;;2272220;62;31135;-87
2021/12/20 15:50:35;;;;;;;3.40;1.48;;;14.60;79.40;;;;;;2276461;62;30553;-84
2021/12/20 15:53:02;;;;;;;2.40;1.05;;;14.70;79.30;;;;;;2266074;62;30363;-83
2021/12/20 15:55:32;;;;;;;3.78;1.40;;;14.70;79.20;;;;;;2276326;62;30086;-78
2021/12/20 15:58:01;;;;;;;3.83;1.23;;;14.80;79.20;;;;;;2278378;62;31019;-91
2021/12/20 16:00:27;;;;;;;5.13;1.30;;;14.80;79.10;;;;;;2275978;62;30284;-83
2021/12/20 16:02:54;;;;;;;2.80;1.63;;;14.90;79.10;;;;;;2267987;62;30267;-79
2021/12/20 16:05:24;;;;;;;3.13;1.20;;;14.90;79.10;;;;;;2268485;62;30668;-78
2021/12/20 16:07:50;;;;;;;2.30;1.30;;;15.00;79.10;;;;;;2267995;62;30124;-78
2021/12/20 16:10:16;;;;;;;5.35;1.58;;;15.00;78.90;;;;;;2268167;62;30814;-78
2021/12/20 16:12:43;;;;;;;2.97;1.63;;;15.00;78.70;;;;;;2264933;62;30349;-80
2021/12/20 16:15:09;;;;;;;2.03;1.08;;;15.00;78.80;;;;;;2283586;62;30145;-79
2021/12/20 16:17:35;;;;;;;2.15;1.23;;;15.00;78.90;;;;;;2276236;62;30395;-80
2021/12/20 16:20:04;;;;;;;6.40;1.58;;;15.00;79.00;;;;;;2276229;62;30199;-80
2021/12/20 16:22:49;;;;;;;2.25;1.17;;;15.00;78.90;;;;;;2270281;62;30045;-81
2021/12/20 16:25:21;;;;;;;2.45;1.40;;;15.00;78.90;;;;;;2263759;62;30387;-80
2021/12/20 16:27:49;;;;;;;3.20;1.02;;;15.00;78.90;;;;;;2269580;62;30326;-81
2021/12/20 16:30:22;;;;;;;1.83;1.08;;;15.10;78.80;;;;;;2283841;62;30178;-78
2021/12/20 16:32:50;;;;;;;3.22;1.27;;;15.10;78.60;;;;;;2276236;62;30760;-80
2021/12/20 16:35:17;;;;;;;2.00;1.20;;;15.10;78.70;;;;;;2276009;62;30583;-79
2021/12/20 16:37:44;;;;;;;2.08;1.10;;;15.10;78.70;;;;;;2283320;62;31129;-80
2021/12/20 16:40:11;;;;;;;2.20;1.38;;;15.10;78.50;;;;;;2283590;62;30314;-80
2021/12/20 16:42:41;;;;;;;4.40;1.35;;;15.10;78.40;;;;;;2276002;62;30294;-79
2021/12/20 16:45:08;;;;;;;2.05;1.25;;;15.10;78.50;;;;;;2275273;62;30586;-80
2021/12/20 16:47:35;;;;;;;3.42;1.50;;;15.10;78.60;;;;;;2269266;62;30328;-79
2021/12/20 16:50:02;;;;;;;2.28;1.25;;;15.00;78.60;;;;;;2282600;62;30799;-82
2021/12/20 16:52:28;;;;;;;2.53;1.52;;;15.00;78.60;;;;;;2275916;62;30275;-81
2021/12/20 16:54:56;;;;;;;2.55;1.65;;;15.00;78.50;;;;;;2283245;62;30129;-85
2021/12/20 16:57:21;;;;;;;3.40;1.48;;;15.10;78.60;;;;;;2283110;62;30853;-86
2021/12/20 16:59:47;;;;;;;1.52;1.27;;;15.00;78.60;;;;;;2283119;62;30385;-86
2021/12/20 17:02:22;;;;;;;2.17;1.38;;;15.00;78.50;;;;;;2274815;62;30110;-93
2021/12/20 17:04:51;;;;;;;1.33;1.23;;;15.10;78.50;;;;;;2276917;62;29988;-88
2021/12/20 17:07:16;;;;;;;2.88;1.50;;;15.10;78.50;;;;;;2276771;62;30968;-84
2021/12/20 17:09:42;;;;;;;1.10;1.00;;;15.10;78.50;;;;;;2276410;62;30142;-92
2021/12/20 17:12:09;;;;;;;3.75;1.30;;;15.10;78.40;;;;;;2284567;62;30239;-85
2021/12/20 17:14:36;;;;;;;1.50;1.40;;;15.10;78.40;;;;;;2269508;62;30831;-83
2021/12/20 17:17:03;;;;;;;1.75;1.50;;;15.10;78.30;;;;;;2273193;62;31026;-87
2021/12/20 17:19:29;;;;;;;2.33;1.35;;;15.10;78.10;;;;;;2261187;62;30706;-86
2021/12/20 17:21:56;;;;;;;1.30;1.20;;;15.10;78.10;;;;;;2268184;62;30270;-88
2021/12/20 17:24:22;;;;;;;2.22;1.30;;;15.00;78.30;;;;;;2276701;62;30701;-83
2021/12/20 17:26:50;;;;;;;2.33;1.58;;;15.10;78.40;;;;;;2275385;62;31183;-82
2021/12/20 17:29:16;;;;;;;1.35;1.25;;;15.10;78.40;;;;;;2275432;62;30268;-87
2021/12/20 17:31:42;;;;;;;3.00;2.00;;;15.10;78.30;;;;;;2267326;62;30681;-84
2021/12/20 17:34:08;;;;;;;3.70;1.77;;;15.10;78.40;;;;;;2268168;62;30417;-92
2021/12/20 17:36:34;;;;;;;2.45;1.73;;;15.10;78.30;;;;;;2267714;62;30191;-85
2021/12/20 17:39:00;;;;;;;4.53;1.92;;;15.10;78.20;;;;;;2275606;62;30053;-86
2021/12/20 17:41:26;;;;;;;15.82;2.47;;;15.10;78.20;;;;;;2267034;62;30342;-85
2021/12/20 17:43:52;;;;;;;2.35;1.52;;;15.10;78.10;;;;;;2284129;62;30199;-87
2021/12/20 17:46:19;;;;;;;2.33;2.10;;;15.10;78.20;;;;;;2284018;62;30150;-79
2021/12/20 17:48:45;;;;;;;2.25;1.88;;;15.20;78.30;;;;;;2276883;62;30802;-86
2021/12/20 17:51:11;;;;;;;3.60;2.10;;;15.20;78.30;;;;;;2276532;62;31130;-73
2021/12/20 17:53:37;;;;;;;2.65;2.05;;;15.40;78.30;;;;;;2284050;62;30424;-76
2021/12/20 17:56:03;;;;;;;4.43;2.05;;;15.50;78.30;;;;;;2276472;62;31646;-77
2021/12/20 17:58:29;;;;;;;2.78;2.20;;;15.60;78.10;;;;;;2276286;62;30218;-76
2021/12/20 18:00:55;;;;;;;2.30;2.10;;;15.70;78.00;;;;;;2284314;62;30187;-78
2021/12/20 18:03:21;;;;;;;4.30;2.42;;;15.80;77.90;;;;;;2284118;62;30451;-75
2021/12/20 18:05:47;;;;;;;2.72;2.30;;;15.90;77.80;;;;;;2277632;62;30442;-76
2021/12/20 18:08:13;;;;;;;3.25;2.50;;;15.90;77.70;;;;;;2276667;62;31000;-81
2021/12/20 18:10:39;;;;;;;3.03;2.50;;;15.90;77.50;;;;;;2284263;62;30114;-80
2021/12/20 18:13:05;;;;;;;4.55;2.60;;;16.00;77.50;;;;;;2283419;62;30113;-79
2021/12/20 18:15:31;;;;;;;4.28;2.60;;;16.00;77.40;;;;;;2280592;62;31121;-78
2021/12/20 18:17:57;;;;;;;2.95;2.72;;;16.00;77.30;;;;;;2274704;62;30359;-78
2021/12/20 18:20:24;;;;;;;2.97;2.65;;;16.00;77.30;;;;;;2276366;62;30170;-77
2021/12/20 18:22:51;;;;;;;3.38;2.55;;;16.10;77.30;;;;;;2283676;62;30152;-78
2021/12/20 18:25:18;;;;;;;4.05;2.90;;;16.10;77.30;;;;;;2269811;62;30957;-77
2021/12/20 18:27:45;;;;;;;3.47;2.90;;;16.10;77.30;;;;;;2283836;62;31884;-76
2021/12/20 18:30:14;;;;;;;5.18;2.70;;;16.10;77.30;;;;;;2284254;62;30310;-76
2021/12/20 18:32:40;;;;;;;3.95;2.75;;;16.10;77.40;;;;;;2278592;62;30296;-76
2021/12/20 18:35:06;;;;;;;5.07;3.03;;;16.10;77.40;;;;;;2275405;62;30396;-75
2021/12/20 18:37:32;;;;;;;2.60;2.40;;;16.10;77.40;;;;;;2276021;62;30844;-75
2021/12/20 18:39:58;;;;;;;7.18;2.90;;;16.20;77.40;;;;;;2268465;62;30288;-75
2021/12/20 18:42:24;;;;;;;4.25;2.95;;;16.20;77.30;;;;;;2275556;62;30323;-75
2021/12/20 18:44:50;;;;;;;3.55;2.72;;;16.30;77.30;;;;;;2268419;62;30254;-75
2021/12/20 18:47:16;;;;;;;4.40;2.95;;;16.40;77.30;;;;;;2275836;62;30179;-76
2021/12/20 18:49:45;;;;;;;3.63;2.75;;;16.50;77.20;;;;;;2275821;62;30687;-76
2021/12/20 18:52:11;;;;;;;2.80;2.60;;;16.70;77.10;;;;;;2275735;62;30262;-77
2021/12/20 18:54:37;;;;;;;2.60;2.40;;;16.80;76.90;;;;;;2275556;62;30890;-76
2021/12/20 18:57:03;;;;;;;3.33;2.50;;;16.90;76.70;;;;;;2275805;62;30461;-77
2021/12/20 18:59:29;;;;;;;2.70;2.50;;;17.00;76.50;;;;;;2275628;62;30214;-76
2021/12/20 19:01:58;;;;;;;2.60;2.40;;;17.10;76.40;;;;;;2271201;62;30232;-77
2021/12/20 19:04:24;;;;;;;2.65;2.33;;;17.20;76.20;;;;;;2276484;62;30895;-76
2021/12/20 19:06:49;;;;;;;7.38;2.47;;;17.20;76.00;;;;;;2269615;62;30157;-77
2021/12/20 19:09:15;;;;;;;2.92;2.20;;;17.30;75.80;;;;;;2280310;62;30814;-76
2021/12/20 19:11:49;;;;;;;3.60;2.33;;;17.30;75.70;;;;;;2276223;62;30278;-79
2021/12/20 19:14:16;;;;;;;7.43;2.40;;;17.30;75.50;;;;;;2268767;62;30283;-75
2021/12/20 19:16:49;;;;;;;2.95;2.10;;;17.40;75.50;;;;;;2278692;62;30547;-78
2021/12/20 19:19:17;;;;;;;2.50;2.30;;;17.40;75.30;;;;;;2274553;62;30241;-77
2021/12/20 19:21:44;;;;;;;3.75;2.40;;;17.40;75.20;;;;;;2281999;62;30419;-76
2021/12/20 19:24:10;;;;;;;2.17;2.08;;;17.50;75.20;;;;;;2275116;62;30954;-77
2021/12/20 19:26:37;;;;;;;2.50;2.17;;;17.50;75.10;;;;;;2282436;62;31438;-76
2021/12/20 19:29:06;;;;;;;2.30;2.10;;;17.50;75.00;;;;;;2282814;62;31231;-78
2021/12/20 19:31:32;;;;;;;2.95;2.10;;;17.50;74.80;;;;;;2276322;62;30359;-78
2021/12/20 19:33:58;;;;;;;2.45;2.25;;;17.50;74.80;;;;;;2276360;62;30876;-76
2021/12/20 19:36:31;;;;;;;2.15;1.90;;;17.50;74.70;;;;;;2276677;62;30740;-75
2021/12/20 19:38:58;;;;;;;2.33;1.95;;;17.60;74.50;;;;;;2276311;62;30299;-75
2021/12/20 19:41:24;;;;;;;2.38;2.17;;;17.60;74.40;;;;;;2276355;62;30205;-74
2021/12/20 19:43:50;;;;;;;2.20;2.00;;;17.60;74.30;;;;;;2269814;62;31108;-75
2021/12/20 19:46:16;;;;;;;2.33;2.13;;;17.60;74.30;;;;;;2269683;62;30405;-74
2021/12/20 19:48:42;;;;;;;1.95;1.85;;;17.50;74.10;;;;;;2269436;62;30174;-76
2021/12/20 19:51:09;;;;;;;2.20;2.00;;;17.60;74.20;;;;;;2283328;62;30195;-76
2021/12/20 19:53:35;;;;;;;1.90;1.80;;;17.60;74.00;;;;;;2272126;62;30860;-76
2021/12/20 19:56:01;;;;;;;2.03;1.92;;;17.60;74.70;;;;;;2282587;62;30599;-71
2021/12/20 19:58:27;;;;;;;2.10;1.92;;;17.60;73.90;;;;;;2275475;62;30717;-73
2021/12/20 20:00:54;;;;;;;2.58;2.00;;;17.60;73.80;;;;;;2272061;62;30205;-71
2021/12/20 20:03:20;;;;;;;2.42;2.20;;;17.60;73.60;;;;;;2268100;62;30191;-72
2021/12/20 20:05:46;;;;;;;3.30;1.85;;;17.60;73.60;;;;;;2267760;62;30173;-71
2021/12/20 20:08:12;;;;;;;2.35;2.10;;;17.60;73.50;;;;;;2275288;62;30159;-72
2021/12/20 20:10:38;;;;;;;2.17;1.92;;;17.60;73.50;;;;;;2268152;62;30277;-71
2021/12/20 20:13:04;;;;;;;4.60;2.00;;;17.60;73.50;;;;;;2267724;62;30745;-72
2021/12/20 20:15:33;;;;;;;4.50;1.75;;;17.50;74.20;;;;;;2275336;62;30470;-72
2021/12/20 20:17:59;;;;;;;3.58;2.03;;;17.50;73.50;;;;;;2275152;62;30321;-72
2021/12/20 20:20:25;;;;;;;3.03;1.90;;;17.50;73.50;;;;;;2267767;62;30422;-72
2021/12/20 20:22:52;;;;;;;3.10;2.00;;;17.50;73.50;;;;;;2268015;62;31003;-71
2021/12/20 20:25:18;;;;;;;1.98;1.80;;;17.40;73.50;;;;;;2261355;62;30591;-72
2021/12/20 20:27:44;;;;;;;2.13;1.90;;;17.50;73.50;;;;;;2267336;62;30273;-72
2021/12/20 20:30:12;;;;;;;2.55;2.08;;;17.50;73.50;;;;;;2275321;62;30332;-71
2021/12/20 20:32:38;;;;;;;3.53;2.00;;;17.40;73.50;;;;;;2267855;62;31046;-71
2021/12/20 20:35:07;;;;;;;3.15;1.90;;;17.40;73.40;;;;;;2275048;62;30299;-72
2021/12/20 20:37:33;;;;;;;2.40;2.20;;;17.40;73.40;;;;;;2275053;62;30424;-71
2021/12/20 20:40:04;;;;;;;3.00;2.05;;;17.40;73.40;;;;;;2275069;62;30182;-71
2021/12/20 20:42:30;;;;;;;3.58;2.22;;;17.40;73.40;;;;;;2274994;62;30147;-71
2021/12/20 20:44:56;;;;;;;1.95;1.75;;;17.40;73.40;;;;;;2267613;62;30175;-71
2021/12/20 20:47:22;;;;;;;2.92;2.00;;;17.40;73.50;;;;;;2274912;62;30294;-71
2021/12/20 20:49:48;;;;;;;5.35;1.90;;;17.40;73.40;;;;;;2275011;62;30220;-74
2021/12/20 20:52:14;;;;;;;2.47;2.08;;;17.30;73.40;;;;;;2274571;62;32163;-76
2021/12/20 20:54:40;;;;;;;2.83;1.95;;;17.30;73.40;;;;;;2274943;62;30163;-76
2021/12/20 20:57:06;;;;;;;2.30;2.10;;;17.30;73.40;;;;;;2274783;62;30130;-78
2021/12/20 20:59:33;;;;;;;2.15;1.80;;;17.30;73.40;;;;;;2275080;62;30199;-76
2021/12/20 21:01:59;;;;;;;5.97;2.30;;;17.30;73.20;;;;;;2282209;62;31190;-75
2021/12/20 21:04:25;;;;;;;2.10;1.90;;;17.30;73.00;;;;;;2283499;62;30829;-75
2021/12/20 21:06:59;;;;;;;3.83;2.00;;;17.30;72.90;;;;;;2282346;62;30761;-75
2021/12/20 21:09:25;;;;;;;2.45;1.85;;;17.30;72.70;;;;;;2274411;62;30486;-75
2021/12/20 21:11:55;;;;;;;1.88;1.70;;;17.40;72.70;;;;;;2283352;62;31943;-76
2021/12/20 21:14:24;;;;;;;3.60;2.05;;;17.30;72.60;;;;;;2269813;62;30536;-76
2021/12/20 21:16:50;;;;;;;2.10;1.80;;;17.40;72.60;;;;;;2281927;62;30382;-76
2021/12/20 21:19:16;;;;;;;2.13;1.80;;;17.40;72.50;;;;;;2275103;62;30271;-76
2021/12/20 21:21:42;;;;;;;2.65;1.60;;;17.40;72.40;;;;;;2261182;62;31011;-77
2021/12/20 21:24:08;;;;;;;3.58;1.90;;;17.40;72.40;;;;;;2275156;62;30788;-78
2021/12/20 21:26:35;;;;;;;2.38;2.17;;;17.40;72.40;;;;;;2267899;62;30260;-77
2021/12/20 21:29:01;;;;;;;2.22;2.08;;;17.40;72.40;;;;;;2267623;62;30304;-78
2021/12/20 21:31:28;;;;;;;2.13;1.90;;;17.40;72.40;;;;;;2267459;62;31244;-79
2021/12/20 21:33:58;;;;;;;3.17;2.22;;;17.30;72.40;;;;;;2274986;62;30615;-79
2021/12/20 21:36:24;;;;;;;1.90;1.80;;;17.40;72.30;;;;;;2274772;62;30115;-78
2021/12/20 21:38:50;;;;;;;4.72;2.15;;;17.40;72.40;;;;;;2275248;62;30081;-84
2021/12/20 21:41:17;;;;;;;2.05;1.88;;;17.40;72.40;;;;;;2276365;62;30931;-82
2021/12/20 21:43:42;;;;;;;2.30;2.10;;;17.40;72.40;;;;;;2276216;62;30144;-80
2021/12/20 21:46:10;;;;;;;2.78;2.10;;;17.40;72.50;;;;;;2276378;62;30852;-80
2021/12/20 21:48:36;;;;;;;2.38;2.17;;;17.40;72.40;;;;;;2262095;62;30207;-81
2021/12/20 21:51:02;;;;;;;2.20;2.00;;;17.30;72.40;;;;;;2276018;62;30256;-84
2021/12/20 21:53:29;;;;;;;2.45;1.98;;;17.30;72.40;;;;;;2276273;62;30845;-82
2021/12/20 21:55:55;;;;;;;2.78;2.03;;;17.30;72.40;;;;;;2276179;62;30116;-88
2021/12/20 21:58:21;;;;;;;2.67;2.00;;;17.30;72.40;;;;;;2276026;62;30222;-86
2021/12/20 22:00:47;;;;;;;2.35;2.10;;;17.30;72.40;;;;;;2276198;62;30060;-87
2021/12/20 22:03:13;;;;;;;2.70;2.40;;;17.30;72.40;;;;;;2276115;62;30461;-84
2021/12/20 22:05:39;;;;;;;2.28;2.08;;;17.30;72.50;;;;;;2268615;62;30329;-79
2021/12/20 22:08:05;;;;;;;2.40;2.20;;;17.30;72.50;;;;;;2275858;62;30305;-82
2021/12/20 22:10:33;;;;;;;2.47;2.28;;;17.30;72.40;;;;;;2284556;62;30185;-81
2021/12/20 22:12:59;;;;;;;2.80;2.33;;;17.30;72.50;;;;;;2276923;62;30258;-86
2021/12/20 22:15:25;;;;;;;2.95;2.28;;;17.30;72.50;;;;;;2270694;62;30305;-83
2021/12/20 22:17:51;;;;;;;2.85;1.80;;;17.30;72.40;;;;;;2268747;62;30017;-81
2021/12/20 22:20:17;;;;;;;2.35;2.15;;;17.30;72.50;;;;;;2276873;62;30332;-81
2021/12/20 22:22:43;;;;;;;2.40;2.20;;;17.30;72.50;;;;;;2269488;62;30339;-84
2021/12/20 22:25:09;;;;;;;1.98;1.80;;;17.30;72.40;;;;;;2284451;62;30242;-82
2021/12/20 22:27:35;;;;;;;2.22;2.08;;;17.30;72.50;;;;;;2276130;62;30412;-80
2021/12/20 22:30:02;;;;;;;2.10;2.00;;;17.20;72.50;;;;;;2284271;62;30932;-79
2021/12/20 22:32:32;;;;;;;2.72;2.20;;;17.20;72.50;;;;;;2283596;62;30399;-83
2021/12/20 22:34:58;;;;;;;2.80;2.15;;;17.30;72.50;;;;;;2283896;62;30220;-79
2021/12/20 22:37:24;;;;;;;1.85;1.75;;;17.20;72.60;;;;;;2275770;62;30432;-85
2021/12/20 22:39:51;;;;;;;1.95;1.73;;;17.20;72.60;;;;;;2276619;62;30823;-85
2021/12/20 22:42:18;;;;;;;2.13;1.95;;;17.20;72.60;;;;;;2284374;62;30602;-89
2021/12/20 22:44:44;;;;;;;2.60;2.05;;;17.20;72.50;;;;;;2269907;62;30028;-85
2021/12/20 22:47:09;;;;;;;2.50;2.00;;;17.20;72.50;;;;;;2270008;62;30075;-88
2021/12/20 22:49:38;;;;;;;1.90;1.80;;;17.20;72.50;;;;;;2261763;62;30119;-86
2021/12/20 22:52:04;;;;;;;4.05;2.33;;;17.20;72.50;;;;;;2276060;62;30251;-80
2021/12/20 22:54:30;;;;;;;9.13;3.28;;;17.20;72.50;;;;;;2261588;62;30304;-77
2021/12/20 22:56:56;;;;;;;12.25;5.10;;;17.20;72.50;;;;;;2268531;62;30208;-83
2021/12/20 22:59:22;;;;;;;13.90;5.55;;;17.20;72.50;;;;;;2268484;62;30087;-85
2021/12/20 23:01:48;;;;;;;11.57;4.03;;;17.20;72.50;;;;;;2268297;62;30198;-83
2021/12/20 23:04:14;;;;;;;9.05;4.00;;;17.20;72.50;;;;;;2268158;62;30839;-77
2021/12/20 23:06:40;;;;;;;5.70;3.40;;;17.20;72.50;;;;;;2268332;62;30228;-75
2021/12/20 23:09:08;;;;;;;7.13;3.28;;;17.20;72.40;;;;;;2275720;62;30310;-75
2021/12/20 23:11:34;;;;;;;6.20;3.35;;;17.20;72.40;;;;;;2275992;62;30946;-87
2021/12/20 23:14:18;;;;;;;5.50;3.47;;;17.20;72.50;;;;;;2276388;62;30060;-79
2021/12/20 23:16:44;;;;;;;6.72;3.40;;;17.20;72.40;;;;;;2276523;62;30257;-75
2021/12/20 23:19:10;;;;;;;5.68;3.40;;;17.10;72.40;;;;;;2262558;62;30959;-74
2021/12/20 23:21:42;;;;;;;7.32;3.10;;;17.00;72.40;;;;;;2276742;62;30259;-74
2021/12/20 23:24:08;;;;;;;4.78;2.92;;;16.90;72.50;;;;;;2269307;62;30173;-77
2021/12/20 23:26:33;;;;;;;4.40;2.70;;;16.80;72.80;;;;;;2262636;62;30184;-76
2021/12/20 23:28:59;;;;;;;4.65;2.90;;;16.70;73.00;;;;;;2276516;62;30924;-76
2021/12/20 23:31:25;;;;;;;5.45;3.47;;;16.60;73.10;;;;;;2276057;62;30616;-75
2021/12/20 23:33:53;;;;;;;7.50;2.75;;;16.50;73.30;;;;;;2269528;62;30205;-75
2021/12/20 23:36:19;;;;;;;4.10;3.10;;;16.40;73.50;;;;;;2276450;62;30140;-74
2021/12/20 23:38:51;;;;;;;4.18;2.70;;;16.30;73.50;;;;;;2276625;62;30932;-76
